Time;durP1;ratioP1;P1;durP2;ratioP2;P2;SDS_P1;SDS_P2;PMS_P1;PMS_P2;Temp;Humidity;BMP_temperature;BMP_pressure;BME280_temperature;BME280_humidity;BME280_pressure;Samples;Min_cycle;Max_cycle;Signal;HPM_P1;HPM_P2
2022/01/24 00:00:15;;;;;;;23.6;34.5;;;;;;;-1.4;66.6;100450;;;;
2022/01/24 00:11:19;;;;;;;23.6;34.5;;;;;;;-1.6;67.4;100450;;;;
2022/01/24 00:32:15;;;;;;;22.1;31.7;;;;;;;-2.5;67.2;100450;;;;
2022/01/24 00:42:25;;;;;;;22.1;31.7;;;;;;;-2.9;67.5;100450;;;;
2022/01/24 00:53:29;;;;;;;29.5;38.8;;;;;;;-3.4;68.1;100440;;;;
2022/01/24 01:03:15;;;;;;;29.5;38.8;;;;;;;-3.9;68.9;100440;;;;
2022/01/24 01:24:16;;;;;;;33.2;41.3;;;;;;;-4.8;71;100450;;;;
2022/01/24 01:34:31;;;;;;;33.2;41.3;;;;;;;-5.3;72;100450;;;;
2022/01/24 01:55:25;;;;;;;28;35.5;;;;;;;-6;72.6;100450;;;;
2022/01/24 02:06:15;;;;;;;28;35.5;;;;;;;-6.1;73.1;100450;;;;
2022/01/24 02:17:20;;;;;;;24.2;30.7;;;;;;;-6.3;73.6;100450;;;;
2022/01/24 02:27:15;;;;;;;24.2;30.7;;;;;;;-6.6;73.9;100450;;;;
2022/01/24 02:38:18;;;;;;;24.2;30.7;;;;;;;-6.8;73.8;100460;;;;
2022/01/24 02:49:15;;;;;;;25.4;34.4;;;;;;;-6.9;76.9;100470;;;;
2022/01/24 02:59:15;;;;;;;25.4;34.4;;;;;;;-7.1;75.4;100470;;;;
2022/01/24 03:10:25;;;;;;;25.4;34.4;;;;;;;-7;76;100480;;;;
2022/01/24 03:20:15;;;;;;;23.1;29.9;;;;;;;-6.8;76.4;100480;;;;
2022/01/24 03:31:15;;;;;;;23.1;29.9;;;;;;;-6.7;76.5;100480;;;;
2022/01/24 03:41:15;;;;;;;23.1;29.9;;;;;;;-6.9;75.8;100480;;;;
2022/01/24 03:52:15;;;;;;;23.5;29.9;;;;;;;-7.2;75;100490;;;;
2022/01/24 04:03:15;;;;;;;23.5;29.9;;;;;;;-7.6;74.6;100510;;;;
2022/01/24 04:14:29;;;;;;;40;58;;;;;;;-7.8;74.9;100510;;;;
2022/01/24 04:25:16;;;;;;;40;58;;;;;;;-8.1;75.3;100520;;;;
2022/01/24 04:36:15;;;;;;;40;58;;;;;;;-8.3;75.6;100520;;;;
2022/01/24 04:46:29;;;;;;;29.6;44;;;;;;;-8.4;76;100520;;;;
2022/01/24 04:57:15;;;;;;;29.6;44;;;;;;;-8.6;76.6;100540;;;;
2022/01/24 05:07:15;;;;;;;29.6;44;;;;;;;-8.8;76.3;100540;;;;
2022/01/24 05:28:15;;;;;;;29.2;41.6;;;;;;;-8.8;76.9;100530;;;;
2022/01/24 05:38:15;;;;;;;29.2;41.6;;;;;;;-9;76;100540;;;;
2022/01/24 05:49:15;;;;;;;28.1;41.6;;;;;;;-9.2;76;100560;;;;
2022/01/24 06:00:15;;;;;;;28.1;41.6;;;;;;;-9.3;76.2;100570;;;;
2022/01/24 06:11:15;;;;;;;28.1;41.6;;;;;;;-9.5;76.4;100580;;;;
2022/01/24 06:21:15;;;;;;;32.3;48;;;;;;;-9.6;76.1;100590;;;;
2022/01/24 06:31:15;;;;;;;32.3;48;;;;;;;-9.7;75.7;100590;;;;
2022/01/24 06:42:22;;;;;;;30.9;48.8;;;;;;;-9.7;75.7;100600;;;;
2022/01/24 06:53:15;;;;;;;30.9;48.8;;;;;;;-9.6;76;100600;;;;
2022/01/24 07:03:15;;;;;;;30.9;48.8;;;;;;;-9.6;75.8;100610;;;;
2022/01/24 07:14:15;;;;;;;33.3;51.6;;;;;;;-9.3;76.5;100610;;;;
2022/01/24 07:24:15;;;;;;;33.3;51.6;;;;;;;-8.9;77;100620;;;;
2022/01/24 07:34:15;;;;;;;33.3;51.6;;;;;;;-8.5;76.8;100610;;;;
2022/01/24 07:45:15;;;;;;;48.2;68.7;;;;;;;-8.2;75.5;100630;;;;
2022/01/24 07:56:15;;;;;;;48.2;68.7;;;;;;;-7.9;75;100620;;;;
2022/01/24 08:06:15;;;;;;;48.2;68.7;;;;;;;-7.6;74.4;100620;;;;
2022/01/24 08:17:15;;;;;;;64.7;84.9;;;;;;;-7.2;74.1;100620;;;;
2022/01/24 08:28:15;;;;;;;64.7;84.9;;;;;;;-6.6;74;100630;;;;
2022/01/24 08:38:15;;;;;;;64.7;84.9;;;;;;;-6.2;73.5;100640;;;;
2022/01/24 08:48:15;;;;;;;67.6;88.4;;;;;;;-5.7;72.9;100640;;;;
2022/01/24 08:58:15;;;;;;;67.6;88.4;;;;;;;-5.1;73.1;100650;;;;
2022/01/24 09:09:15;;;;;;;67.6;88.4;;;;;;;-4.6;71.4;100660;;;;
2022/01/24 09:19:15;;;;;;;74;90.3;;;;;;;-4.6;69.8;100650;;;;
2022/01/24 09:30:15;;;;;;;74;90.3;;;;;;;-4.1;69.9;100650;;;;
2022/01/24 09:40:15;;;;;;;74;90.3;;;;;;;-3.7;69.3;100640;;;;
2022/01/24 09:51:15;;;;;;;67.1;75.2;;;;;;;-3;68;100640;;;;
2022/01/24 10:02:15;;;;;;;67.1;75.2;;;;;;;-2.5;67.4;100630;;;;
2022/01/24 10:23:15;;;;;;;56.5;68.3;;;;;;;-1.5;64.9;100610;;;;
2022/01/24 10:33:15;;;;;;;56.5;68.3;;;;;;;-1.3;63.2;100600;;;;
2022/01/24 10:44:15;;;;;;;47.8;54.7;;;;;;;-0.9;60.5;100590;;;;
2022/01/24 10:55:15;;;;;;;47.8;54.7;;;;;;;-0.5;59;100590;;;;
2022/01/24 11:05:15;;;;;;;47.8;54.7;;;;;;;0.2;58;100570;;;;
2022/01/24 11:15:15;;;;;;;34.9;40.1;;;;;;;0.9;57.9;100540;;;;
2022/01/24 11:25:15;;;;;;;34.9;40.1;;;;;;;0.5;57.6;100540;;;;
2022/01/24 11:35:15;;;;;;;34.9;40.1;;;;;;;1.5;57;100520;;;;
2022/01/24 11:46:15;;;;;;;26.4;31.6;;;;;;;1;53.6;100520;;;;
2022/01/24 11:56:15;;;;;;;26.4;31.6;;;;;;;1.5;54.2;100520;;;;
2022/01/24 12:07:15;;;;;;;26.4;31.6;;;;;;;1.9;53.5;100510;;;;
2022/01/24 12:18:15;;;;;;;16.1;18.9;;;;;;;2;52;100510;;;;
2022/01/24 12:29:15;;;;;;;16.1;18.9;;;;;;;2.4;50.8;100500;;;;
2022/01/24 12:40:17;;;;;;;18.1;21.3;;;;;;;2.4;51.9;100510;;;;
2022/01/24 12:50:15;;;;;;;18.1;21.3;;;;;;;2.6;51.8;100520;;;;
2022/01/24 13:00:15;;;;;;;18.1;21.3;;;;;;;2.3;51.1;100520;;;;
2022/01/24 13:11:15;;;;;;;24.8;30.6;;;;;;;2.3;51.8;100520;;;;
2022/01/24 13:22:15;;;;;;;24.8;30.6;;;;;;;1.7;51;100520;;;;
2022/01/24 13:32:15;;;;;;;24.8;30.6;;;;;;;2;52.6;100500;;;;
2022/01/24 13:42:15;;;;;;;25.6;32.6;;;;;;;2.3;51.9;100500;;;;
2022/01/24 13:53:15;;;;;;;25.6;32.6;;;;;;;2.1;51.8;100470;;;;
2022/01/24 14:04:15;;;;;;;25.6;32.6;;;;;;;2;51.4;100470;;;;
2022/01/24 14:15:20;;;;;;;23.1;27.8;;;;;;;1.6;51.5;100470;;;;
2022/01/24 14:26:15;;;;;;;23.1;27.8;;;;;;;1.2;51.5;100460;;;;
2022/01/24 14:36:16;;;;;;;23.1;27.8;;;;;;;0.8;51.7;100460;;;;
2022/01/24 14:47:15;;;;;;;18.5;22.4;;;;;;;0.4;52.4;100450;;;;
2022/01/24 14:54:39;;;;;;;18.5;22.4;;;;;;;0.1;53;100440;;;;
2022/01/24 15:04:37;;;;;;;18.5;22.4;;;;;;;-0.4;54.2;100450;;;;
2022/01/24 15:15:43;;;;;;;24.2;29.3;;;;;;;-1;55.8;100460;;;;
2022/01/24 15:26:37;;;;;;;24.2;29.3;;;;;;;-1.2;57.1;100460;;;;
2022/01/24 15:36:37;;;;;;;24.2;29.3;;;;;;;-1.3;58;100460;;;;
2022/01/24 15:47:44;;;;;;;72.2;88.2;;;;;;;-1.4;58.3;100460;;;;
2022/01/24 15:58:37;;;;;;;72.2;88.2;;;;;;;-1.5;59.8;100450;;;;
2022/01/24 16:08:37;;;;;;;72.2;88.2;;;;;;;-1.4;60.3;100440;;;;
2022/01/24 16:18:40;;;;;;;53.1;66.4;;;;;;;-1.3;61.4;100440;;;;
2022/01/24 16:29:37;;;;;;;53.1;66.4;;;;;;;-1.4;63.2;100440;;;;
2022/01/24 16:39:39;;;;;;;70.1;92;;;;;;;-1.2;62.6;100440;;;;
2022/01/24 16:50:37;;;;;;;70.1;92;;;;;;;-1.1;62.8;100440;;;;
2022/01/24 17:01:38;;;;;;;70.1;92;;;;;;;-1;63.2;100440;;;;
2022/01/24 17:12:37;;;;;;;67.3;79.9;;;;;;;-0.9;63.6;100450;;;;
2022/01/24 17:22:38;;;;;;;67.3;79.9;;;;;;;-0.9;63.4;100460;;;;
2022/01/24 17:33:38;;;;;;;67.3;79.9;;;;;;;-1.2;62.8;100460;;;;
2022/01/24 17:44:38;;;;;;;94.7;109.1;;;;;;;-1.2;62.9;100440;;;;
2022/01/24 17:54:38;;;;;;;94.7;109.1;;;;;;;-1.4;63.8;100430;;;;
2022/01/24 18:05:39;;;;;;;94.7;109.1;;;;;;;-1.4;62.5;100450;;;;
2022/01/24 18:16:37;;;;;;;67.9;80.6;;;;;;;-1.2;62.8;100430;;;;
2022/01/24 18:26:38;;;;;;;67.9;80.6;;;;;;;-1.4;63.2;100440;;;;
2022/01/24 18:37:38;;;;;;;67.9;80.6;;;;;;;-1.4;64;100440;;;;
2022/01/24 18:47:38;;;;;;;67.6;83.3;;;;;;;-1.3;64.7;100430;;;;
2022/01/24 18:58:38;;;;;;;67.6;83.3;;;;;;;-1.2;64.8;100430;;;;
2022/01/24 19:09:38;;;;;;;68.5;84.1;;;;;;;-1;64.7;100420;;;;
2022/01/24 19:19:49;;;;;;;68.5;84.1;;;;;;;-0.9;65.2;100420;;;;
2022/01/24 19:29:38;;;;;;;68.5;84.1;;;;;;;-0.8;65.2;100420;;;;
2022/01/24 19:40:38;;;;;;;95.2;119.1;;;;;;;-0.9;66.2;100420;;;;
2022/01/24 19:51:38;;;;;;;95.2;119.1;;;;;;;-0.9;66.5;100420;;;;
2022/01/24 20:01:38;;;;;;;95.2;119.1;;;;;;;-0.9;66.4;100410;;;;
2022/01/24 20:12:38;;;;;;;97.2;113.9;;;;;;;-0.8;66.8;100410;;;;
2022/01/24 20:22:38;;;;;;;97.2;113.9;;;;;;;-0.8;66.6;100410;;;;
2022/01/24 20:33:38;;;;;;;97.2;113.9;;;;;;;-0.7;66.5;100410;;;;
2022/01/24 20:44:38;;;;;;;111.8;135;;;;;;;-0.7;66.9;100400;;;;
2022/01/24 20:54:38;;;;;;;111.8;135;;;;;;;-0.7;66.9;100400;;;;
2022/01/24 21:04:38;;;;;;;111.8;135;;;;;;;-0.7;67;100400;;;;
2022/01/24 21:15:38;;;;;;;115.2;132.1;;;;;;;-0.6;66.9;100390;;;;
2022/01/24 21:26:38;;;;;;;115.2;132.1;;;;;;;-0.4;66.7;100400;;;;
2022/01/24 21:36:38;;;;;;;115.2;132.1;;;;;;;-0.3;66.4;100380;;;;
2022/01/24 21:47:38;;;;;;;92.3;106.1;;;;;;;-0.3;66;100380;;;;
2022/01/24 21:57:38;;;;;;;92.3;106.1;;;;;;;-0.4;65.3;100370;;;;
2022/01/24 22:18:38;;;;;;;66.2;84.4;;;;;;;-0.5;65.3;100350;;;;
2022/01/24 22:29:38;;;;;;;66.2;84.4;;;;;;;-0.3;65.5;100350;;;;
2022/01/24 22:40:38;;;;;;;59.3;70.2;;;;;;;-0.2;65.1;100340;;;;
2022/01/24 22:50:38;;;;;;;59.3;70.2;;;;;;;0;65.2;100320;;;;
2022/01/24 23:00:38;;;;;;;59.3;70.2;;;;;;;-0.1;65.6;100310;;;;
2022/01/24 23:11:38;;;;;;;61.7;79.5;;;;;;;-0.1;65.6;100290;;;;
2022/01/24 23:22:40;;;;;;;61.7;79.5;;;;;;;-0.2;65.8;100280;;;;
2022/01/24 23:32:49;;;;;;;61.7;79.5;;;;;;;-0.1;65.6;100270;;;;
2022/01/24 23:42:38;;;;;;;47.4;55.4;;;;;;;0;65.6;100260;;;;
2022/01/24 23:53:38;;;;;;;47.4;55.4;;;;;;;0.1;65.7;100250;;;;
